Time;durP1;ratioP1;P1;durP2;ratioP2;P2;SDS_P1;SDS_P2;PMS_P1;PMS_P2;Temp;Humidity;BMP_temperature;BMP_pressure;BME280_temperature;BME280_humidity;BME280_pressure;Samples;Min_cycle;Max_cycle;Signal;HPM_P1;HPM_P2
2021/03/27 00:00:25;;;;;;;10.63;6.03;;;;;;;;;;4980717;28;20824;-82
2021/03/27 00:06:05;;;;;;;5.37;4.80;;;;;;;;;;4976830;28;20829;-80
2021/03/27 00:08:39;;;;;;;6.60;5.90;;;;;;;;;;4975191;28;20417;-80
2021/03/27 00:11:08;;;;;;;6.97;6.00;;;;;;;;;;4975185;28;20417;-83
2021/03/27 00:13:43;;;;;;;6.47;5.10;;;;;;;;;;4957351;28;20496;-81
2021/03/27 00:16:19;;;;;;;7.37;5.40;;;;;;;;;;4975093;28;20888;-78
2021/03/27 00:21:52;;;;;;;7.17;5.23;;;;;;;;;;4976320;28;20543;-82
2021/03/27 00:24:25;;;;;;;7.43;4.97;;;;;;;;;;4974899;28;20466;-82
2021/03/27 00:27:10;;;;;;;6.40;5.27;;;;;;;;;;4974947;28;20506;-83
2021/03/27 00:29:43;;;;;;;8.90;5.30;;;;;;;;;;4974372;28;20437;-83
2021/03/27 00:32:14;;;;;;;6.00;4.60;;;;;;;;;;4974044;28;20417;-80
2021/03/27 00:34:41;;;;;;;7.33;5.10;;;;;;;;;;4974491;28;21078;-83
2021/03/27 00:37:11;;;;;;;5.73;4.30;;;;;;;;;;4974759;28;20463;-81
2021/03/27 00:40:13;;;;;;;6.00;4.77;;;;;;;;;;4974649;28;20441;-80
2021/03/27 00:42:42;;;;;;;5.00;4.43;;;;;;;;;;4877540;29;20440;-81
2021/03/27 00:45:13;;;;;;;7.17;4.50;;;;;;;;;;4957451;28;20477;-79
2021/03/27 00:47:40;;;;;;;5.93;4.10;;;;;;;;;;4974276;28;20429;-79
2021/03/27 00:50:06;;;;;;;7.57;4.90;;;;;;;;;;4974341;28;20468;-79
2021/03/27 00:52:40;;;;;;;5.07;4.57;;;;;;;;;;4974168;28;20952;-78
2021/03/27 00:55:24;;;;;;;8.50;4.27;;;;;;;;;;4974253;28;20419;-79
2021/03/27 00:57:57;;;;;;;4.77;4.20;;;;;;;;;;4974122;28;20416;-80
2021/03/27 01:00:23;;;;;;;6.07;4.40;;;;;;;;;;4973921;28;20429;-80
2021/03/27 01:02:50;;;;;;;4.23;3.87;;;;;;;;;;4973408;28;20488;-80
2021/03/27 01:05:19;;;;;;;7.70;4.33;;;;;;;;;;4974400;28;20481;-82
2021/03/27 01:07:45;;;;;;;4.50;4.07;;;;;;;;;;4974051;28;20858;-80
2021/03/27 01:10:21;;;;;;;6.83;4.90;;;;;;;;;;4974233;28;20421;-79
2021/03/27 01:12:48;;;;;;;4.90;4.27;;;;;;;;;;4974159;28;20404;-81
2021/03/27 01:15:19;;;;;;;4.80;4.37;;;;;;;;;;4974248;28;20838;-81
2021/03/27 01:17:47;;;;;;;5.70;4.93;;;;;;;;;;4974019;28;20496;-80
2021/03/27 01:20:16;;;;;;;6.10;5.33;;;;;;;;;;4974312;28;20427;-80
2021/03/27 01:22:44;;;;;;;7.17;5.20;;;;;;;;;;4973970;28;20781;-80
2021/03/27 01:25:11;;;;;;;6.40;4.63;;;;;;;;;;4974079;28;20513;-80
2021/03/27 01:27:46;;;;;;;6.40;4.40;;;;;;;;;;4974076;28;20416;-79
2021/03/27 01:30:13;;;;;;;4.77;4.33;;;;;;;;;;4973440;28;20440;-79
2021/03/27 01:32:44;;;;;;;5.13;4.40;;;;;;;;;;4974059;28;20418;-80
2021/03/27 01:35:28;;;;;;;5.60;4.37;;;;;;;;;;4973859;28;21006;-79
2021/03/27 01:38:06;;;;;;;6.40;5.07;;;;;;;;;;4973836;28;20415;-80
2021/03/27 01:40:35;;;;;;;6.03;4.60;;;;;;;;;;4956380;28;20486;-81
2021/03/27 01:43:20;;;;;;;4.53;4.00;;;;;;;;;;4975018;28;20403;-79
2021/03/27 01:45:55;;;;;;;5.17;4.43;;;;;;;;;;4974068;28;20472;-79
2021/03/27 01:48:44;;;;;;;4.80;4.27;;;;;;;;;;4975610;28;20443;-79
2021/03/27 01:51:21;;;;;;;5.20;4.53;;;;;;;;;;4976480;28;20483;-79
2021/03/27 01:53:56;;;;;;;6.67;4.30;;;;;;;;;;4974905;28;20494;-81
2021/03/27 01:56:40;;;;;;;5.53;5.00;;;;;;;;;;4973847;28;20416;-80
2021/03/27 01:59:11;;;;;;;4.47;4.07;;;;;;;;;;4973502;28;20914;-79
2021/03/27 02:01:37;;;;;;;6.00;4.40;;;;;;;;;;4973573;28;20419;-81
2021/03/27 02:04:03;;;;;;;6.83;4.53;;;;;;;;;;4955930;28;20496;-81
2021/03/27 02:06:32;;;;;;;6.80;4.27;;;;;;;;;;4973531;28;20844;-80
2021/03/27 02:09:17;;;;;;;7.93;4.93;;;;;;;;;;4973633;28;20782;-80
2021/03/27 02:12:03;;;;;;;5.80;4.40;;;;;;;;;;4973618;28;20667;-80
2021/03/27 02:14:44;;;;;;;7.20;4.93;;;;;;;;;;4975953;28;20426;-79
2021/03/27 02:20:14;;;;;;;5.30;4.80;;;;;;;;;;4977134;28;20410;-79
2021/03/27 02:22:59;;;;;;;7.37;5.73;;;;;;;;;;4977013;28;20816;-78
2021/03/27 02:25:28;;;;;;;6.63;4.83;;;;;;;;;;4977136;28;20475;-79
2021/03/27 02:28:12;;;;;;;5.60;4.97;;;;;;;;;;4977229;28;20454;-80
2021/03/27 02:30:41;;;;;;;5.57;4.40;;;;;;;;;;4977504;28;20416;-80
2021/03/27 02:36:15;;;;;;;6.20;4.83;;;;;;;;;;4976870;28;20478;-82
2021/03/27 02:38:53;;;;;;;5.30;4.27;;;;;;;;;;4976844;28;20429;-83
2021/03/27 02:41:19;;;;;;;4.97;4.53;;;;;;;;;;4977035;28;20412;-81
2021/03/27 02:43:50;;;;;;;5.07;4.60;;;;;;;;;;4976898;28;20430;-81
2021/03/27 02:46:28;;;;;;;6.80;4.70;;;;;;;;;;4976689;28;20476;-81
2021/03/27 02:52:14;;;;;;;8.47;4.93;;;;;;;;;;4976670;28;20418;-80
2021/03/27 02:54:46;;;;;;;7.47;5.00;;;;;;;;;;4976843;28;20448;-81
2021/03/27 02:57:12;;;;;;;4.57;4.13;;;;;;;;;;4976553;28;20478;-80
2021/03/27 02:59:56;;;;;;;3.87;3.47;;;;;;;;;;4976204;28;20423;-79
2021/03/27 03:02:26;;;;;;;6.67;4.57;;;;;;;;;;4959520;28;20439;-80
2021/03/27 03:05:07;;;;;;;4.47;3.47;;;;;;;;;;4977282;28;20502;-81
2021/03/27 03:07:42;;;;;;;3.77;3.30;;;;;;;;;;4976327;28;20436;-80
2021/03/27 03:10:15;;;;;;;4.43;4.03;;;;;;;;;;4976498;28;20429;-77
2021/03/27 03:12:58;;;;;;;5.13;3.37;;;;;;;;;;4976147;28;20417;-79
2021/03/27 03:15:42;;;;;;;5.47;4.17;;;;;;;;;;4976257;28;20411;-80
2021/03/27 03:18:26;;;;;;;4.00;3.27;;;;;;;;;;4976085;28;20909;-78
2021/03/27 03:20:57;;;;;;;3.30;3.00;;;;;;;;;;4975935;28;20622;-78
2021/03/27 03:23:33;;;;;;;5.17;4.07;;;;;;;;;;4976114;28;20450;-80
2021/03/27 03:26:09;;;;;;;5.17;3.37;;;;;;;;;;4975408;28;20814;-80
2021/03/27 03:28:41;;;;;;;3.77;3.47;;;;;;;;;;4975749;28;20501;-80
2021/03/27 03:31:07;;;;;;;3.80;2.87;;;;;;;;;;4975763;28;20420;-80
2021/03/27 03:33:33;;;;;;;4.40;3.40;;;;;;;;;;4975964;28;20893;-80
2021/03/27 03:36:08;;;;;;;3.80;3.50;;;;;;;;;;4975745;28;20481;-80
2021/03/27 03:38:46;;;;;;;4.30;3.20;;;;;;;;;;4977617;28;20420;-80
2021/03/27 03:41:16;;;;;;;7.93;3.03;;;;;;;;;;4978194;28;20418;-80
2021/03/27 03:43:42;;;;;;;3.47;2.97;;;;;;;;;;4977102;28;20433;-80
2021/03/27 03:46:14;;;;;;;4.13;3.20;;;;;;;;;;4975984;28;20538;-80
2021/03/27 03:48:43;;;;;;;4.30;2.87;;;;;;;;;;4975960;28;20414;-79
2021/03/27 03:51:17;;;;;;;1.93;1.60;;;;;;;;;;4977418;28;20428;-81
2021/03/27 03:53:50;;;;;;;1.43;0.90;;;;;;;;;;4977749;28;20442;-83
2021/03/27 03:56:19;;;;;;;2.53;0.90;;;;;;;;;;4976835;28;20527;-83
2021/03/27 03:58:58;;;;;;;0.90;0.70;;;;;;;;;;4975270;28;20410;-80
2021/03/27 04:01:27;;;;;;;0.93;0.70;;;;;;;;;;4975721;28;20410;-83
2021/03/27 04:04:01;;;;;;;1.07;0.60;;;;;;;;;;4975259;28;20917;-82
2021/03/27 04:06:28;;;;;;;0.60;0.50;;;;;;;;;;4975543;28;20841;-83
2021/03/27 04:09:11;;;;;;;1.20;0.77;;;;;;;;;;4975087;28;20411;-80
2021/03/27 04:11:40;;;;;;;0.60;0.50;;;;;;;;;;4975299;28;20422;-83
2021/03/27 04:14:09;;;;;;;0.93;0.73;;;;;;;;;;4975173;28;20415;-84
2021/03/27 04:16:39;;;;;;;1.23;0.50;;;;;;;;;;4974929;28;20474;-80
2021/03/27 04:19:12;;;;;;;1.30;0.50;;;;;;;;;;4974915;28;20415;-78
2021/03/27 04:21:41;;;;;;;0.50;0.40;;;;;;;;;;4974987;28;20858;-80
2021/03/27 04:24:18;;;;;;;1.50;0.77;;;;;;;;;;4976534;28;20418;-79
2021/03/27 04:26:49;;;;;;;0.63;0.63;;;;;;;;;;4957807;28;20929;-79
2021/03/27 04:29:25;;;;;;;0.70;0.70;;;;;;;;;;4974282;28;20421;-80
2021/03/27 04:31:51;;;;;;;0.90;0.60;;;;;;;;;;4974809;28;20493;-81
2021/03/27 04:34:27;;;;;;;1.60;0.60;;;;;;;;;;4957432;28;20442;-80
2021/03/27 04:36:53;;;;;;;0.93;0.80;;;;;;;;;;4973556;28;20423;-83
2021/03/27 04:39:30;;;;;;;0.83;0.67;;;;;;;;;;4974350;28;20931;-78
2021/03/27 04:41:59;;;;;;;0.80;0.70;;;;;;;;;;4974653;28;20422;-81
2021/03/27 04:44:25;;;;;;;3.23;0.60;;;;;;;;;;4974832;28;20835;-79
2021/03/27 04:46:55;;;;;;;0.77;0.70;;;;;;;;;;4974773;28;20413;-80
2021/03/27 04:49:37;;;;;;;0.57;0.57;;;;;;;;;;4974774;28;20419;-80
2021/03/27 04:52:08;;;;;;;0.87;0.47;;;;;;;;;;4974506;28;20418;-80
2021/03/27 04:54:34;;;;;;;1.70;0.63;;;;;;;;;;4974503;28;20431;-80
2021/03/27 04:57:07;;;;;;;0.87;0.67;;;;;;;;;;4974604;28;20497;-79
2021/03/27 05:00:06;;;;;;;0.60;0.40;;;;;;;;;;4973994;28;20430;-81
2021/03/27 05:05:30;;;;;;;0.97;0.80;;;;;;;;;;4974485;28;20508;-80
2021/03/27 05:08:10;;;;;;;1.87;0.83;;;;;;;;;;4956917;28;20431;-81
2021/03/27 05:10:42;;;;;;;0.97;0.73;;;;;;;;;;4974467;28;20457;-79
2021/03/27 05:13:16;;;;;;;1.73;0.77;;;;;;;;;;4974108;28;20437;-83
2021/03/27 05:16:01;;;;;;;1.57;0.70;;;;;;;;;;4974145;28;20417;-80
2021/03/27 05:21:38;;;;;;;0.95;0.68;;;;;;;;;;4974285;28;20520;-80
2021/03/27 05:24:16;;;;;;;1.10;0.70;;;;;;;;;;4974008;28;20173;-80
2021/03/27 05:27:01;;;;;;;0.93;0.70;;;;;;;;;;4974046;28;20426;-81
2021/03/27 05:29:38;;;;;;;1.70;0.40;;;;;;;;;;4974885;28;20424;-80
2021/03/27 05:32:27;;;;;;;2.00;0.40;;;;;;;;;;4975419;28;20179;-78
2021/03/27 05:38:08;;;;;;;1.10;0.47;;;;;;;;;;4974168;28;20327;-78
2021/03/27 05:40:52;;;;;;;1.67;0.50;;;;;;;;;;4974146;28;20173;-78
2021/03/27 05:43:32;;;;;;;0.45;0.28;;;;;;;;;;4974620;28;20415;-79
2021/03/27 05:45:58;;;;;;;0.85;0.30;;;;;;;;;;4975505;28;20205;-79
2021/03/27 05:48:48;;;;;;;0.40;0.30;;;;;;;;;;4974509;28;20174;-79
2021/03/27 05:51:13;;;;;;;0.63;0.40;;;;;;;;;;4978046;28;20779;-80
2021/03/27 05:53:45;;;;;;;0.40;0.30;;;;;;;;;;4977757;28;20253;-78
2021/03/27 05:56:30;;;;;;;0.40;0.30;;;;;;;;;;4978189;28;20449;-78
2021/03/27 05:58:56;;;;;;;0.52;0.52;;;;;;;;;;4977368;28;20257;-80
2021/03/27 06:01:22;;;;;;;0.60;0.60;;;;;;;;;;4978006;28;20221;-81
2021/03/27 06:03:51;;;;;;;0.40;0.30;;;;;;;;;;4977058;28;20646;-79
2021/03/27 06:06:36;;;;;;;0.70;0.47;;;;;;;;;;4977460;28;20217;-78
2021/03/27 06:09:08;;;;;;;0.88;0.43;;;;;;;;;;4977327;28;20209;-78
2021/03/27 06:11:37;;;;;;;0.50;0.45;;;;;;;;;;4977521;28;20232;-79
2021/03/27 06:14:15;;;;;;;1.35;0.70;;;;;;;;;;4977465;28;20637;-80
2021/03/27 06:16:59;;;;;;;1.90;0.63;;;;;;;;;;4977458;28;20630;-79
2021/03/27 06:19:37;;;;;;;2.05;0.60;;;;;;;;;;4977208;28;20187;-81
2021/03/27 06:22:03;;;;;;;0.50;0.32;;;;;;;;;;4977272;28;20231;-80
2021/03/27 06:24:32;;;;;;;1.03;0.37;;;;;;;;;;4977181;28;20606;-81
2021/03/27 06:26:58;;;;;;;1.25;0.60;;;;;;;;;;4977181;28;20429;-81
2021/03/27 06:29:39;;;;;;;1.80;0.40;;;;;;;;;;4976772;28;20171;-83
2021/03/27 06:32:31;;;;;;;0.93;0.30;;;;;;;;;;4976848;28;20181;-80
2021/03/27 06:35:16;;;;;;;2.03;0.70;;;;;;;;;;4976320;28;20222;-78
2021/03/27 06:37:55;;;;;;;0.65;0.50;;;;;;;;;;4959590;28;20175;-77
2021/03/27 06:40:33;;;;;;;1.05;0.50;;;;;;;;;;4976963;28;20178;-82
2021/03/27 06:43:18;;;;;;;1.77;0.80;;;;;;;;;;4976750;28;20225;-80
2021/03/27 06:45:56;;;;;;;0.87;0.50;;;;;;;;;;4976622;28;20462;-85
2021/03/27 06:51:44;;;;;;;2.13;0.67;;;;;;;;;;4976789;28;20415;-82
2021/03/27 06:54:13;;;;;;;1.37;0.50;;;;;;;;;;4976524;28;20505;-84
2021/03/27 06:56:45;;;;;;;0.50;0.30;;;;;;;;;;4976856;28;20487;-82
2021/03/27 06:59:17;;;;;;;0.97;0.60;;;;;;;;;;4958257;28;20957;-83
2021/03/27 07:01:43;;;;;;;1.33;0.63;;;;;;;;;;4975839;28;20535;-83
2021/03/27 07:07:16;;;;;;;1.13;0.77;;;;;;;;;;4979849;28;20429;-84
2021/03/27 07:10:11;;;;;;;1.57;0.80;;;;;;;;;;4978849;28;20438;-81
2021/03/27 07:12:49;;;;;;;1.83;0.50;;;;;;;;;;4955370;28;20445;-83
2021/03/27 07:15:48;;;;;;;1.13;0.50;;;;;;;;;;4975895;28;20414;-81
2021/03/27 07:21:37;;;;;;;0.70;0.60;;;;;;;;;;4978397;28;20415;-80
2021/03/27 07:24:02;;;;;;;0.57;0.50;;;;;;;;;;4976435;28;20414;-79
2021/03/27 07:26:47;;;;;;;1.27;0.40;;;;;;;;;;4974333;28;20424;-82
2021/03/27 07:29:31;;;;;;;0.40;0.37;;;;;;;;;;4974249;28;20504;-82
2021/03/27 07:32:16;;;;;;;0.87;0.40;;;;;;;;;;4974515;28;20420;-83
2021/03/27 07:38:01;;;;;;;1.53;0.70;;;;;;;;;;4974653;28;20492;-80
2021/03/27 07:40:33;;;;;;;2.83;0.60;;;;;;;;;;4974787;28;20418;-77
2021/03/27 07:43:11;;;;;;;0.63;0.40;;;;;;;;;;4975032;28;20414;-80
2021/03/27 07:45:53;;;;;;;2.70;0.40;;;;;;;;;;4974609;28;20474;-79
2021/03/27 07:48:38;;;;;;;2.63;0.60;;;;;;;;;;4974981;28;20502;-81
2021/03/27 07:54:07;;;;;;;2.40;1.00;;;;;;;;;;4975310;28;20477;-77
2021/03/27 07:56:39;;;;;;;1.30;0.63;;;;;;;;;;4976059;28;20426;-78
2021/03/27 07:59:23;;;;;;;1.07;0.60;;;;;;;;;;4974893;28;20553;-80
2021/03/27 08:01:57;;;;;;;1.37;0.70;;;;;;;;;;4975290;28;20430;-77
2021/03/27 08:04:26;;;;;;;3.03;0.50;;;;;;;;;;4974440;28;20874;-82
2021/03/27 08:06:52;;;;;;;1.30;0.70;;;;;;;;;;4974993;28;20423;-78
2021/03/27 08:09:37;;;;;;;0.90;0.60;;;;;;;;;;4974891;28;20912;-81
2021/03/27 08:12:06;;;;;;;0.87;0.50;;;;;;;;;;4974856;28;20512;-79
2021/03/27 08:14:50;;;;;;;0.50;0.40;;;;;;;;;;4974199;28;20411;-79
2021/03/27 08:17:23;;;;;;;0.83;0.60;;;;;;;;;;4974332;28;20457;-84
2021/03/27 08:19:53;;;;;;;1.60;0.50;;;;;;;;;;4974450;28;20938;-82
2021/03/27 08:22:24;;;;;;;2.30;0.70;;;;;;;;;;4974401;28;20447;-79
2021/03/27 08:24:55;;;;;;;1.40;0.43;;;;;;;;;;4974258;28;20542;-80
2021/03/27 08:27:27;;;;;;;1.50;0.63;;;;;;;;;;4974204;28;20449;-79
2021/03/27 08:29:59;;;;;;;0.77;0.77;;;;;;;;;;4973732;28;20462;-79
2021/03/27 08:32:43;;;;;;;1.80;0.70;;;;;;;;;;4974232;28;20433;-80
2021/03/27 08:35:19;;;;;;;1.10;0.50;;;;;;;;;;4974261;28;20474;-78
2021/03/27 08:38:03;;;;;;;0.80;0.67;;;;;;;;;;4974377;28;20402;-79
2021/03/27 08:40:48;;;;;;;0.93;0.60;;;;;;;;;;4974523;28;20846;-78
2021/03/27 08:43:37;;;;;;;0.63;0.53;;;;;;;;;;4974834;28;20518;-79
2021/03/27 08:46:12;;;;;;;2.83;0.50;;;;;;;;;;4974924;28;20498;-80
2021/03/27 08:48:50;;;;;;;0.90;0.53;;;;;;;;;;4974516;28;20769;-78
2021/03/27 08:51:36;;;;;;;0.50;0.40;;;;;;;;;;4974542;28;20429;-81
2021/03/27 08:54:08;;;;;;;1.00;0.50;;;;;;;;;;4973934;28;20447;-80
2021/03/27 08:56:34;;;;;;;1.03;0.40;;;;;;;;;;4974198;28;20780;-83
2021/03/27 08:59:17;;;;;;;0.70;0.70;;;;;;;;;;4957423;28;20517;-79
2021/03/27 09:01:52;;;;;;;1.87;0.50;;;;;;;;;;4974896;28;20430;-83
2021/03/27 09:07:09;;;;;;;0.77;0.60;;;;;;;;;;4974115;28;20853;-80
2021/03/27 09:09:54;;;;;;;0.60;0.60;;;;;;;;;;4978668;28;20411;-80
2021/03/27 09:12:20;;;;;;;1.30;0.60;;;;;;;;;;4983301;28;20489;-80
2021/03/27 09:15:05;;;;;;;2.40;0.50;;;;;;;;;;4982086;28;20770;-80
2021/03/27 09:17:57;;;;;;;0.70;0.60;;;;;;;;;;4973804;28;20806;-79
2021/03/27 09:23:52;;;;;;;0.97;0.43;;;;;;;;;;4976865;28;20417;-81
2021/03/27 09:26:37;;;;;;;0.90;0.40;;;;;;;;;;4958789;28;20944;-82
2021/03/27 09:29:18;;;;;;;2.00;0.50;;;;;;;;;;4979896;28;20418;-78
2021/03/27 09:31:51;;;;;;;0.60;0.47;;;;;;;;;;4980261;28;20417;-80
2021/03/27 09:34:23;;;;;;;1.83;0.50;;;;;;;;;;4979780;28;20411;-79
2021/03/27 09:39:52;;;;;;;0.50;0.40;;;;;;;;;;4979830;28;20967;-79
2021/03/27 09:42:51;;;;;;;1.90;0.97;;;;;;;;;;4980023;28;20426;-79
2021/03/27 09:45:37;;;;;;;2.70;0.50;;;;;;;;;;4927268;28;20779;-83
2021/03/27 09:48:13;;;;;;;0.73;0.60;;;;;;;;;;4952919;28;20450;-82
2021/03/27 09:50:49;;;;;;;2.10;0.50;;;;;;;;;;4980159;28;20418;-82
2021/03/27 09:53:34;;;;;;;0.60;0.33;;;;;;;;;;4980597;28;20429;-85
2021/03/27 09:56:03;;;;;;;1.10;0.60;;;;;;;;;;4980671;28;20414;-81
2021/03/27 09:58:34;;;;;;;0.80;0.50;;;;;;;;;;4979992;28;20410;-79
2021/03/27 10:01:00;;;;;;;0.73;0.40;;;;;;;;;;4980540;28;20411;-84
2021/03/27 10:03:45;;;;;;;0.70;0.50;;;;;;;;;;4963143;28;20496;-85
2021/03/27 10:06:31;;;;;;;0.70;0.40;;;;;;;;;;4979965;28;20513;-80
2021/03/27 10:09:03;;;;;;;0.70;0.60;;;;;;;;;;4980080;28;20429;-81
2021/03/27 10:11:31;;;;;;;1.57;0.40;;;;;;;;;;4980531;28;20767;-88
2021/03/27 10:14:00;;;;;;;2.13;0.57;;;;;;;;;;4981371;28;20446;-84
2021/03/27 10:16:32;;;;;;;1.50;0.60;;;;;;;;;;4980057;28;20410;-83
2021/03/27 10:19:01;;;;;;;0.63;0.43;;;;;;;;;;4980009;28;20418;-77
2021/03/27 10:21:48;;;;;;;0.60;0.50;;;;;;;;;;4980091;28;20414;-84
2021/03/27 10:24:21;;;;;;;1.07;0.57;;;;;;;;;;4961921;28;20429;-81
2021/03/27 10:26:53;;;;;;;1.80;0.70;;;;;;;;;;4979731;28;20438;-82
2021/03/27 10:29:48;;;;;;;1.20;0.50;;;;;;;;;;4979342;28;20481;-81
2021/03/27 10:32:20;;;;;;;0.67;0.37;;;;;;;;;;4979846;28;20411;-80
2021/03/27 10:34:52;;;;;;;1.23;0.43;;;;;;;;;;4978234;28;20463;-79
2021/03/27 10:37:25;;;;;;;1.23;0.50;;;;;;;;;;4959424;28;20513;-77
2021/03/27 10:39:59;;;;;;;0.80;0.60;;;;;;;;;;4976800;28;20415;-81
2021/03/27 10:42:47;;;;;;;0.90;0.40;;;;;;;;;;4976655;28;20476;-78
2021/03/27 10:45:27;;;;;;;0.47;0.47;;;;;;;;;;4976602;28;20454;-78
2021/03/27 10:48:05;;;;;;;1.20;0.50;;;;;;;;;;4976521;28;20429;-79
2021/03/27 10:53:41;;;;;;;0.70;0.50;;;;;;;;;;4976546;28;20438;-80
2021/03/27 10:56:13;;;;;;;2.80;0.53;;;;;;;;;;4976865;28;20961;-79
2021/03/27 10:58:45;;;;;;;1.47;0.70;;;;;;;;;;4976492;28;20524;-81
2021/03/27 11:01:17;;;;;;;1.50;0.60;;;;;;;;;;4977046;28;20458;-80
2021/03/27 11:04:04;;;;;;;0.50;0.30;;;;;;;;;;4977212;28;20423;-79
2021/03/27 11:09:52;;;;;;;3.40;0.93;;;;;;;;;;4976305;28;20433;-80
2021/03/27 11:12:30;;;;;;;0.90;0.60;;;;;;;;;;4976397;28;20413;-79
2021/03/27 11:15:02;;;;;;;1.93;0.53;;;;;;;;;;4976167;28;20459;-79
2021/03/27 11:17:49;;;;;;;1.47;0.60;;;;;;;;;;4958613;28;20946;-80
2021/03/27 11:26:41;;;;;;;2.73;0.93;;;;;;;;;;4975941;28;21081;-79
2021/03/27 11:29:09;;;;;;;2.00;0.83;;;;;;;;;;4975306;28;20495;-80
2021/03/27 11:31:40;;;;;;;2.03;0.90;;;;;;;;;;4975840;28;20457;-80
2021/03/27 11:34:15;;;;;;;1.90;0.90;;;;;;;;;;4975530;28;20415;-79
2021/03/27 11:36:44;;;;;;;1.87;0.57;;;;;;;;;;4975553;28;20437;-78
2021/03/27 11:39:29;;;;;;;1.83;0.50;;;;;;;;;;4975752;28;20932;-78
2021/03/27 11:42:13;;;;;;;1.23;0.60;;;;;;;;;;4975498;28;20485;-79
2021/03/27 11:44:39;;;;;;;2.80;0.50;;;;;;;;;;4975808;28;20802;-82
2021/03/27 11:47:26;;;;;;;1.27;0.73;;;;;;;;;;4975605;28;20434;-78
2021/03/27 11:50:03;;;;;;;0.70;0.57;;;;;;;;;;4975380;28;20502;-81
2021/03/27 11:52:48;;;;;;;1.30;0.70;;;;;;;;;;4975536;28;20417;-79
2021/03/27 11:55:26;;;;;;;0.80;0.63;;;;;;;;;;4975445;28;20415;-80
2021/03/27 11:57:59;;;;;;;1.37;0.60;;;;;;;;;;4975584;28;20414;-83
2021/03/27 12:03:16;;;;;;;1.33;0.93;;;;;;;;;;4975489;28;20917;-86
2021/03/27 12:08:56;;;;;;;1.60;0.57;;;;;;;;;;4975274;28;20473;-84
2021/03/27 12:11:41;;;;;;;1.67;0.90;;;;;;;;;;4977386;28;20402;-81
2021/03/27 12:14:30;;;;;;;2.27;0.80;;;;;;;;;;4976104;28;20510;-81
2021/03/27 12:17:01;;;;;;;2.20;1.00;;;;;;;;;;4930526;28;20514;-82
2021/03/27 12:19:38;;;;;;;1.07;0.70;;;;;;;;;;4974965;28;20454;-84
2021/03/27 12:25:29;;;;;;;1.73;0.80;;;;;;;;;;4975083;28;20469;-81
2021/03/27 12:28:01;;;;;;;1.27;1.10;;;;;;;;;;4974817;28;20489;-81
2021/03/27 12:30:40;;;;;;;0.90;0.70;;;;;;;;;;4974603;28;20422;-81
2021/03/27 12:33:08;;;;;;;1.90;0.90;;;;;;;;;;4974799;28;20481;-81
2021/03/27 12:35:36;;;;;;;1.30;0.80;;;;;;;;;;4974960;28;20818;-80
2021/03/27 12:41:32;;;;;;;1.17;0.60;;;;;;;;;;4974878;28;20426;-83
2021/03/27 12:44:01;;;;;;;0.60;0.50;;;;;;;;;;4938150;28;20434;-80
2021/03/27 12:46:46;;;;;;;0.80;0.70;;;;;;;;;;4974617;28;20890;-80
2021/03/27 12:49:28;;;;;;;1.27;1.10;;;;;;;;;;4974501;28;20411;-81
2021/03/27 12:52:12;;;;;;;0.73;0.60;;;;;;;;;;4974456;28;20422;-80
2021/03/27 12:54:42;;;;;;;2.20;1.10;;;;;;;;;;4974581;28;20468;-83
2021/03/27 12:57:09;;;;;;;3.03;0.73;;;;;;;;;;4974194;28;20411;-79
2021/03/27 12:59:45;;;;;;;1.43;1.10;;;;;;;;;;4973209;28;20823;-79
2021/03/27 13:02:17;;;;;;;1.27;0.80;;;;;;;;;;4974332;28;20442;-80
2021/03/27 13:05:03;;;;;;;0.97;0.60;;;;;;;;;;4974066;28;20528;-80
2021/03/27 13:07:47;;;;;;;1.27;0.50;;;;;;;;;;4974167;28;20440;-79
2021/03/27 13:10:32;;;;;;;1.80;1.00;;;;;;;;;;4974037;28;20431;-79
2021/03/27 13:13:06;;;;;;;2.30;1.20;;;;;;;;;;4974124;28;20474;-79
2021/03/27 13:15:51;;;;;;;2.73;0.77;;;;;;;;;;4974114;28;20433;-83
2021/03/27 13:18:28;;;;;;;1.47;1.07;;;;;;;;;;4974027;28;20983;-79
2021/03/27 13:24:04;;;;;;;2.60;1.10;;;;;;;;;;4974129;28;20479;-81
2021/03/27 13:26:31;;;;;;;1.60;0.70;;;;;;;;;;4974028;28;20509;-79
2021/03/27 13:29:31;;;;;;;1.00;0.77;;;;;;;;;;4973475;28;20460;-79
2021/03/27 13:31:59;;;;;;;1.60;0.77;;;;;;;;;;4974000;28;20443;-79
2021/03/27 13:34:34;;;;;;;0.93;0.57;;;;;;;;;;4973739;28;20428;-82
2021/03/27 13:40:30;;;;;;;4.17;1.30;;;;;;;;;;4974132;28;20475;-79
2021/03/27 13:42:56;;;;;;;1.30;0.90;;;;;;;;;;4969902;28;20441;-80
2021/03/27 13:45:41;;;;;;;1.77;1.03;;;;;;;;;;4974088;28;20476;-80
2021/03/27 13:48:31;;;;;;;1.60;0.70;;;;;;;;;;4973988;28;20912;-80
2021/03/27 13:51:01;;;;;;;2.00;0.63;;;;;;;;;;4974063;28;20451;-83
2021/03/27 13:56:49;;;;;;;1.93;0.73;;;;;;;;;;4973642;28;20477;-81
2021/03/27 13:59:33;;;;;;;1.27;0.90;;;;;;;;;;4973140;28;20437;-81
2021/03/27 14:02:18;;;;;;;1.23;0.70;;;;;;;;;;4973637;28;20417;-79
2021/03/27 14:04:51;;;;;;;0.70;0.70;;;;;;;;;;4973497;28;20471;-80
2021/03/27 14:07:23;;;;;;;2.00;0.83;;;;;;;;;;4973835;28;20421;-79
2021/03/27 14:09:55;;;;;;;1.80;1.00;;;;;;;;;;4975305;28;20770;-79
2021/03/27 14:12:28;;;;;;;1.10;0.60;;;;;;;;;;4977225;28;20465;-79
2021/03/27 14:15:06;;;;;;;1.40;1.00;;;;;;;;;;4977144;28;20487;-82
2021/03/27 14:17:47;;;;;;;3.40;0.67;;;;;;;;;;4977222;28;20440;-80
2021/03/27 14:20:32;;;;;;;1.20;0.70;;;;;;;;;;4976962;28;20488;-79
2021/03/27 14:22:58;;;;;;;2.17;1.20;;;;;;;;;;4977039;28;20421;-80
2021/03/27 14:25:30;;;;;;;2.50;1.00;;;;;;;;;;4976550;28;20800;-79
2021/03/27 14:27:56;;;;;;;0.97;0.40;;;;;;;;;;4976635;28;20416;-81
2021/03/27 14:30:22;;;;;;;1.43;0.80;;;;;;;;;;4976235;28;20475;-79
2021/03/27 14:32:57;;;;;;;2.13;0.77;;;;;;;;;;4976374;28;20405;-78
2021/03/27 14:35:26;;;;;;;1.90;0.97;;;;;;;;;;4975809;28;20474;-78
2021/03/27 14:38:06;;;;;;;1.90;0.60;;;;;;;;;;4975901;28;20446;-78
2021/03/27 14:40:32;;;;;;;2.17;0.87;;;;;;;;;;4975876;28;20436;-79
2021/03/27 14:43:21;;;;;;;0.70;0.50;;;;;;;;;;4975613;28;20413;-78
2021/03/27 14:46:06;;;;;;;1.03;0.60;;;;;;;;;;4975986;28;20475;-79
2021/03/27 14:48:34;;;;;;;1.17;0.70;;;;;;;;;;4975903;28;20681;-79
2021/03/27 14:51:14;;;;;;;0.97;0.50;;;;;;;;;;4975349;28;20481;-79
2021/03/27 14:53:42;;;;;;;2.90;1.20;;;;;;;;;;4957506;28;20437;-79
2021/03/27 14:56:12;;;;;;;1.33;0.40;;;;;;;;;;4975012;28;20492;-81
2021/03/27 14:58:45;;;;;;;1.37;0.60;;;;;;;;;;4974847;28;20431;-80
2021/03/27 15:01:14;;;;;;;2.47;0.97;;;;;;;;;;4974215;28;20428;-81
2021/03/27 15:03:43;;;;;;;3.33;0.80;;;;;;;;;;4974962;28;20433;-81
2021/03/27 15:06:25;;;;;;;2.70;0.70;;;;;;;;;;4973137;28;20484;-80
2021/03/27 15:08:57;;;;;;;1.10;0.80;;;;;;;;;;4974088;28;20424;-80
2021/03/27 15:11:23;;;;;;;3.17;0.93;;;;;;;;;;4973999;28;20405;-80
2021/03/27 15:13:56;;;;;;;4.30;1.00;;;;;;;;;;4956754;28;20520;-80
2021/03/27 15:16:31;;;;;;;1.33;0.77;;;;;;;;;;4973975;28;20547;-79
2021/03/27 15:19:20;;;;;;;1.80;0.50;;;;;;;;;;4974089;28;20902;-80
2021/03/27 15:28:14;;;;;;;3.43;0.70;;;;;;;;;;4937500;28;20458;-81
2021/03/27 15:30:42;;;;;;;1.43;0.57;;;;;;;;;;4973161;28;20428;-79
2021/03/27 15:33:11;;;;;;;1.10;0.63;;;;;;;;;;4974093;28;20424;-80
2021/03/27 15:35:41;;;;;;;1.40;0.63;;;;;;;;;;4974459;28;20458;-80
2021/03/27 15:41:17;;;;;;;4.10;1.17;;;;;;;;;;4974917;28;20450;-79
2021/03/27 15:43:58;;;;;;;1.80;0.93;;;;;;;;;;4974667;28;20409;-79
2021/03/27 15:46:33;;;;;;;5.50;0.80;;;;;;;;;;4974699;28;20482;-79
2021/03/27 15:49:17;;;;;;;1.77;1.10;;;;;;;;;;4974558;28;20415;-79
2021/03/27 15:57:48;;;;;;;0.80;0.70;;;;;;;;;;4974432;28;20825;-81
2021/03/27 16:00:29;;;;;;;1.33;0.90;;;;;;;;;;4957104;28;20539;-78
2021/03/27 16:03:03;;;;;;;1.33;0.73;;;;;;;;;;4971945;28;20417;-79
2021/03/27 16:05:33;;;;;;;1.90;0.83;;;;;;;;;;4973369;28;20461;-79
2021/03/27 16:08:01;;;;;;;1.90;0.90;;;;;;;;;;4973457;28;20431;-81
2021/03/27 16:10:30;;;;;;;2.30;0.77;;;;;;;;;;4973481;28;20422;-81
2021/03/27 16:13:05;;;;;;;1.40;0.80;;;;;;;;;;4973300;28;20502;-78
2021/03/27 16:15:39;;;;;;;2.10;1.17;;;;;;;;;;4973404;28;20471;-80
2021/03/27 16:18:18;;;;;;;2.50;1.10;;;;;;;;;;4956128;28;20482;-79
2021/03/27 16:20:52;;;;;;;1.23;0.77;;;;;;;;;;4973562;28;20408;-79
2021/03/27 16:23:21;;;;;;;3.70;1.23;;;;;;;;;;4973758;28;20412;-79
2021/03/27 16:26:02;;;;;;;4.87;1.63;;;;;;;;;;4973177;28;20974;-79
2021/03/27 16:28:47;;;;;;;3.00;1.43;;;;;;;;;;4955437;28;20468;-80
2021/03/27 16:31:32;;;;;;;3.63;1.70;;;;;;;;;;4972899;28;20804;-81
2021/03/27 16:34:00;;;;;;;3.30;1.20;;;;;;;;;;4972525;28;20428;-81
2021/03/27 16:36:45;;;;;;;3.27;1.07;;;;;;;;;;4972693;28;20475;-80
2021/03/27 16:39:14;;;;;;;1.60;1.00;;;;;;;;;;4972621;28;20424;-79
2021/03/27 16:41:47;;;;;;;2.10;1.20;;;;;;;;;;4972723;28;20415;-80
2021/03/27 16:44:33;;;;;;;5.00;2.10;;;;;;;;;;4972525;28;20420;-79
2021/03/27 16:47:12;;;;;;;2.93;1.40;;;;;;;;;;4973092;28;20459;-79
2021/03/27 16:49:43;;;;;;;1.70;0.93;;;;;;;;;;4972894;28;20410;-79
2021/03/27 16:55:25;;;;;;;1.30;1.20;;;;;;;;;;4972933;28;20474;-81
2021/03/27 16:58:00;;;;;;;1.57;0.90;;;;;;;;;;4973020;28;20502;-77
2021/03/27 17:00:26;;;;;;;2.20;1.03;;;;;;;;;;4972798;28;20444;-79
2021/03/27 17:02:52;;;;;;;2.70;0.87;;;;;;;;;;4972716;28;20412;-81
2021/03/27 17:05:18;;;;;;;4.83;0.80;;;;;;;;;;4972650;28;20940;-82
2021/03/27 17:11:15;;;;;;;2.00;0.80;;;;;;;;;;4972515;28;20486;-81
2021/03/27 17:13:47;;;;;;;7.70;1.60;;;;;;;;;;4972989;28;20806;-80
2021/03/27 17:16:17;;;;;;;2.20;1.17;;;;;;;;;;4972552;28;20424;-79